Time;durP1;ratioP1;P1;durP2;ratioP2;P2;SDS_P1;SDS_P2;PMS_P1;PMS_P2;Temp;Humidity;BMP_temperature;BMP_pressure;BME280_temperature;BME280_humidity;BME280_pressure;Samples;Min_cycle;Max_cycle;Signal;HPM_P1;HPM_P2
2023/04/18 00:01:44;;;;;;;2.58;0.93;;;19.70;80.50;;;;;;4951613;28;20106;-79
2023/04/18 00:04:10;;;;;;;2.17;1.00;;;19.70;80.50;;;;;;4948952;29;20028;-79
2023/04/18 00:06:35;;;;;;;3.50;1.10;;;19.70;80.50;;;;;;4951372;29;20031;-78
2023/04/18 00:09:01;;;;;;;3.05;0.90;;;19.70;80.50;;;;;;4951118;28;20034;-79
2023/04/18 00:11:27;;;;;;;4.20;1.10;;;19.70;80.60;;;;;;4951230;29;20019;-79
2023/04/18 00:13:52;;;;;;;1.60;0.90;;;19.70;80.50;;;;;;4951376;29;20090;-79
2023/04/18 00:16:18;;;;;;;1.05;0.70;;;19.70;80.50;;;;;;4951943;29;20019;-79
2023/04/18 00:18:44;;;;;;;3.25;0.95;;;19.70;80.60;;;;;;4952241;28;20058;-78
2023/04/18 00:21:09;;;;;;;6.05;1.10;;;19.70;80.50;;;;;;4951227;29;20500;-79
2023/04/18 00:23:36;;;;;;;6.45;1.30;;;19.70;80.50;;;;;;4953431;29;20019;-79
2023/04/18 00:26:01;;;;;;;1.52;0.88;;;19.70;80.60;;;;;;4953132;29;20027;-79
2023/04/18 00:28:27;;;;;;;2.15;0.85;;;19.70;80.50;;;;;;4953251;28;20029;-79
2023/04/18 00:30:52;;;;;;;1.48;0.77;;;19.60;80.50;;;;;;4954256;29;20023;-79
2023/04/18 00:33:18;;;;;;;1.90;0.80;;;19.70;80.50;;;;;;4952388;29;20648;-79
2023/04/18 00:35:44;;;;;;;1.35;1.00;;;19.70;80.60;;;;;;4954370;29;20031;-79
2023/04/18 00:38:09;;;;;;;0.88;0.80;;;19.60;80.50;;;;;;4954566;28;20062;-79
2023/04/18 00:40:35;;;;;;;1.65;1.00;;;19.60;80.50;;;;;;4952961;29;20019;-79
2023/04/18 00:43:01;;;;;;;3.85;1.00;;;19.70;80.50;;;;;;4954683;29;20023;-79
2023/04/18 00:45:27;;;;;;;1.23;1.00;;;19.60;80.50;;;;;;4954455;29;20031;-79
2023/04/18 00:47:54;;;;;;;3.55;1.10;;;19.60;80.50;;;;;;4951343;28;20026;-79
2023/04/18 00:50:19;;;;;;;0.70;0.70;;;19.70;80.60;;;;;;4954513;28;20019;-78
2023/04/18 00:52:45;;;;;;;3.47;0.90;;;19.60;80.50;;;;;;4954688;29;20070;-79
2023/04/18 00:55:11;;;;;;;5.57;1.23;;;19.60;80.50;;;;;;4954265;29;20051;-79
2023/04/18 00:57:37;;;;;;;3.17;1.10;;;19.60;80.50;;;;;;4952775;28;20603;-79
2023/04/18 01:00:09;;;;;;;3.40;0.85;;;19.60;80.60;;;;;;4953718;29;20055;-79
2023/04/18 01:02:36;;;;;;;4.25;1.00;;;19.60;80.50;;;;;;4951880;29;20217;-79
2023/04/18 01:05:02;;;;;;;3.88;1.05;;;19.60;80.60;;;;;;4952062;28;20038;-79
2023/04/18 01:07:30;;;;;;;2.15;0.90;;;19.60;80.60;;;;;;4952814;28;20015;-78
2023/04/18 01:09:56;;;;;;;2.58;1.10;;;19.60;80.50;;;;;;4952792;28;20020;-79
2023/04/18 01:12:22;;;;;;;4.28;0.98;;;19.60;80.50;;;;;;4950052;28;20015;-78
2023/04/18 01:14:48;;;;;;;4.55;0.85;;;19.60;80.50;;;;;;4952137;29;20110;-79
2023/04/18 01:17:13;;;;;;;1.42;0.75;;;19.60;81.30;;;;;;4951995;28;20086;-79
2023/04/18 01:19:39;;;;;;;2.05;0.80;;;19.60;80.60;;;;;;4951241;29;20716;-79
2023/04/18 01:22:05;;;;;;;4.30;1.00;;;19.60;80.50;;;;;;4951651;29;20027;-78
2023/04/18 01:24:31;;;;;;;1.33;0.80;;;19.60;80.50;;;;;;4951704;29;20042;-79
2023/04/18 01:26:57;;;;;;;2.55;1.13;;;19.50;80.40;;;;;;4950993;28;20078;-79
2023/04/18 01:29:26;;;;;;;3.40;0.73;;;19.60;80.50;;;;;;4951764;28;20027;-79
2023/04/18 01:31:52;;;;;;;1.08;0.90;;;19.60;80.50;;;;;;4953024;29;20027;-79
2023/04/18 01:34:18;;;;;;;4.05;1.17;;;19.50;80.50;;;;;;4951792;29;20023;-79
2023/04/18 01:36:44;;;;;;;1.17;0.93;;;19.50;80.50;;;;;;4951797;29;20444;-79
2023/04/18 01:39:11;;;;;;;3.13;1.13;;;19.50;80.50;;;;;;4951654;28;20030;-79
2023/04/18 01:41:36;;;;;;;0.88;0.70;;;19.50;80.50;;;;;;4951986;28;20473;-79
2023/04/18 01:44:02;;;;;;;2.78;1.00;;;19.50;80.50;;;;;;4946962;29;20069;-79
2023/04/18 01:46:28;;;;;;;0.77;0.70;;;19.50;80.50;;;;;;4947012;28;20050;-79
2023/04/18 01:48:54;;;;;;;1.17;0.80;;;19.50;80.50;;;;;;4946067;29;20110;-79
2023/04/18 01:51:20;;;;;;;0.98;0.88;;;19.50;80.50;;;;;;4950725;29;20022;-79
2023/04/18 01:53:45;;;;;;;0.95;0.73;;;19.50;80.50;;;;;;4948187;29;20020;-79
2023/04/18 01:56:11;;;;;;;1.48;0.90;;;19.50;80.50;;;;;;4942544;29;20161;-79
2023/04/18 01:58:37;;;;;;;0.88;0.80;;;19.50;80.50;;;;;;4945891;29;20027;-79
2023/04/18 02:01:02;;;;;;;1.95;0.80;;;19.50;80.50;;;;;;4949174;29;20032;-79
2023/04/18 02:03:28;;;;;;;2.25;0.82;;;19.50;80.50;;;;;;4946213;29;20425;-79
2023/04/18 02:05:54;;;;;;;0.82;0.80;;;19.50;80.50;;;;;;4943629;29;20039;-79
2023/04/18 02:08:19;;;;;;;0.80;0.63;;;19.50;80.50;;;;;;4943404;29;20015;-79
2023/04/18 02:10:45;;;;;;;1.42;0.95;;;19.50;80.50;;;;;;4950688;29;20074;-79
2023/04/18 02:13:10;;;;;;;1.20;0.77;;;19.50;80.50;;;;;;4943208;29;20087;-79
2023/04/18 02:15:36;;;;;;;6.45;1.20;;;19.50;80.50;;;;;;4950016;29;20061;-79
2023/04/18 02:18:02;;;;;;;1.30;0.90;;;19.40;80.40;;;;;;4948727;28;20031;-79
2023/04/18 02:20:32;;;;;;;2.15;0.90;;;19.50;80.50;;;;;;4943909;29;20066;-79
2023/04/18 02:22:58;;;;;;;1.30;0.90;;;19.50;80.50;;;;;;4946838;29;20446;-79
2023/04/18 02:25:26;;;;;;;3.08;0.80;;;19.40;80.40;;;;;;4947905;29;20144;-79
2023/04/18 02:27:52;;;;;;;0.60;0.60;;;19.40;80.50;;;;;;4938156;29;20037;-79
2023/04/18 02:30:18;;;;;;;1.67;0.85;;;19.50;80.50;;;;;;4946363;29;20023;-79
2023/04/18 02:32:44;;;;;;;5.63;0.80;;;19.40;80.50;;;;;;4950300;29;20031;-79
2023/04/18 02:35:11;;;;;;;2.28;0.80;;;19.40;80.40;;;;;;4947739;29;20082;-78
2023/04/18 02:37:37;;;;;;;0.70;0.57;;;19.40;80.40;;;;;;4946201;28;20124;-79
2023/04/18 02:40:03;;;;;;;0.63;0.60;;;19.40;80.40;;;;;;4950232;29;20386;-79
2023/04/18 02:42:30;;;;;;;1.17;0.70;;;19.40;80.40;;;;;;4950908;28;20023;-79
2023/04/18 02:44:56;;;;;;;1.08;0.70;;;19.40;80.40;;;;;;4948348;29;20509;-79
2023/04/18 02:47:21;;;;;;;0.70;0.70;;;19.40;80.40;;;;;;4950020;28;20065;-79
2023/04/18 02:49:47;;;;;;;2.92;0.70;;;19.40;80.40;;;;;;4948938;29;20024;-79
2023/04/18 02:52:12;;;;;;;0.63;0.63;;;19.40;80.50;;;;;;4950621;29;20038;-79
2023/04/18 02:54:38;;;;;;;0.50;0.50;;;19.40;80.40;;;;;;4947751;28;20019;-79
2023/04/18 02:57:03;;;;;;;1.02;0.80;;;19.40;80.40;;;;;;4948971;28;20574;-79
2023/04/18 02:59:29;;;;;;;1.08;0.80;;;19.40;80.40;;;;;;4946372;29;20081;-79
2023/04/18 03:01:54;;;;;;;0.52;0.52;;;19.40;80.40;;;;;;4948139;29;20089;-79
2023/04/18 03:04:20;;;;;;;1.52;0.80;;;19.40;80.40;;;;;;4951254;29;20031;-78
2023/04/18 03:06:47;;;;;;;0.80;0.80;;;19.40;80.40;;;;;;4945954;29;20024;-79
2023/04/18 03:09:13;;;;;;;1.45;0.60;;;19.40;80.40;;;;;;4946289;28;20448;-79
2023/04/18 03:11:38;;;;;;;0.75;0.70;;;19.40;80.40;;;;;;4949129;29;20051;-79
2023/04/18 03:14:04;;;;;;;0.68;0.63;;;19.40;80.40;;;;;;4947317;29;20023;-79
2023/04/18 03:16:29;;;;;;;0.60;0.60;;;19.40;80.40;;;;;;4949169;29;20413;-79
2023/04/18 03:18:55;;;;;;;2.33;1.13;;;19.40;80.40;;;;;;4949995;28;20102;-79
2023/04/18 03:21:20;;;;;;;0.75;0.60;;;19.30;80.30;;;;;;4943374;28;20032;-79
2023/04/18 03:23:46;;;;;;;2.47;1.00;;;19.40;80.40;;;;;;4946735;29;20027;-79
2023/04/18 03:26:12;;;;;;;1.27;1.02;;;19.30;80.30;;;;;;4949041;29;20114;-79
2023/04/18 03:28:38;;;;;;;0.77;0.77;;;19.30;80.30;;;;;;4946289;28;20110;-80
2023/04/18 03:31:04;;;;;;;2.70;1.02;;;19.30;80.30;;;;;;4945233;29;20484;-79
2023/04/18 03:33:30;;;;;;;0.75;0.75;;;19.30;80.30;;;;;;4947531;28;20042;-79
2023/04/18 03:35:55;;;;;;;2.50;1.00;;;19.30;80.30;;;;;;4944098;29;20062;-80
2023/04/18 03:38:21;;;;;;;0.70;0.70;;;19.40;80.40;;;;;;4948146;28;20400;-78
2023/04/18 03:40:47;;;;;;;0.60;0.60;;;19.30;80.30;;;;;;4946463;29;20023;-79
2023/04/18 03:43:13;;;;;;;1.92;0.70;;;19.40;80.40;;;;;;4949013;28;20030;-79
2023/04/18 03:45:39;;;;;;;0.73;0.73;;;19.40;80.40;;;;;;4947629;29;20035;-80
2023/04/18 03:48:06;;;;;;;1.23;0.60;;;19.30;80.30;;;;;;4950745;28;20019;-79
2023/04/18 03:50:31;;;;;;;1.20;1.10;;;19.40;80.40;;;;;;4955090;29;20045;-79
2023/04/18 03:52:57;;;;;;;0.95;0.70;;;19.30;80.40;;;;;;4949852;29;20485;-79
2023/04/18 03:55:25;;;;;;;1.23;0.60;;;19.30;80.50;;;;;;4949436;29;20050;-79
2023/04/18 03:57:50;;;;;;;0.73;0.70;;;19.30;80.60;;;;;;4947487;28;20545;-79
2023/04/18 04:00:16;;;;;;;1.75;0.80;;;19.40;80.70;;;;;;4948956;29;20035;-79
2023/04/18 04:02:42;;;;;;;1.25;0.50;;;19.40;80.70;;;;;;4953021;29;20036;-79
2023/04/18 04:05:08;;;;;;;1.80;0.90;;;19.40;80.70;;;;;;4953211;29;20042;-79
2023/04/18 04:07:33;;;;;;;1.65;1.00;;;19.50;80.70;;;;;;4952880;28;20020;-79
2023/04/18 04:09:59;;;;;;;0.60;0.60;;;19.50;80.70;;;;;;4953318;29;20023;-79
2023/04/18 04:12:24;;;;;;;0.80;0.70;;;19.50;80.70;;;;;;4957260;29;20495;-79
2023/04/18 04:14:50;;;;;;;0.73;0.70;;;19.50;80.70;;;;;;4953647;29;20031;-79
2023/04/18 04:17:16;;;;;;;1.05;0.65;;;19.60;80.80;;;;;;4950340;28;20504;-78
2023/04/18 04:19:41;;;;;;;0.70;0.70;;;19.60;80.70;;;;;;4950899;29;20023;-78
2023/04/18 04:22:07;;;;;;;1.00;0.55;;;19.60;80.60;;;;;;4952521;29;20051;-78
2023/04/18 04:24:34;;;;;;;1.63;0.80;;;19.60;80.60;;;;;;4945656;28;20362;-79
2023/04/18 04:27:00;;;;;;;0.50;0.50;;;19.60;80.60;;;;;;4947873;28;20020;-79
2023/04/18 04:29:27;;;;;;;1.30;0.80;;;19.70;80.60;;;;;;4947085;29;20017;-78
2023/04/18 04:31:53;;;;;;;0.82;0.60;;;19.70;80.60;;;;;;4948629;29;20028;-80
2023/04/18 04:34:20;;;;;;;7.72;1.00;;;19.70;80.50;;;;;;4947975;29;20031;-80
2023/04/18 04:36:46;;;;;;;6.22;2.17;;;19.80;81.00;;;;;;4951666;29;20027;-79
2023/04/18 04:39:12;;;;;;;100.43;10.70;;;19.80;80.80;;;;;;4949316;28;20020;-80
2023/04/18 04:41:39;;;;;;;496.40;64.50;;;19.80;80.70;;;;;;4946375;28;20025;-80
2023/04/18 04:44:05;;;;;;;453.63;58.47;;;19.80;80.90;;;;;;4947825;29;20539;-81
2023/04/18 04:46:31;;;;;;;321.27;44.88;;;19.80;81.00;;;;;;4949438;28;20124;-80
2023/04/18 04:48:56;;;;;;;221.50;33.55;;;19.80;81.00;;;;;;4951021;28;20469;-82
2023/04/18 04:51:22;;;;;;;235.98;30.80;;;19.80;81.80;;;;;;4950406;29;20019;-81
2023/04/18 04:53:48;;;;;;;227.73;31.02;;;19.80;81.00;;;;;;4948371;29;20026;-80
2023/04/18 04:56:13;;;;;;;190.25;27.67;;;19.80;81.10;;;;;;4956248;29;20477;-81
2023/04/18 04:58:39;;;;;;;192.00;28.67;;;19.80;81.10;;;;;;4947205;28;20042;-79
2023/04/18 05:01:07;;;;;;;203.88;28.05;;;19.80;81.10;;;;;;4945299;29;20031;-78
2023/04/18 05:03:35;;;;;;;194.73;26.08;;;19.80;81.20;;;;;;4946319;28;20086;-78
2023/04/18 05:06:00;;;;;;;206.10;28.17;;;19.90;81.10;;;;;;4943910;29;20111;-78
2023/04/18 05:08:26;;;;;;;199.10;28.55;;;19.80;81.00;;;;;;4951113;28;20106;-78
2023/04/18 05:10:52;;;;;;;199.68;29.30;;;19.80;80.90;;;;;;4941836;29;20098;-78
2023/04/18 05:13:17;;;;;;;176.75;27.27;;;19.90;81.00;;;;;;4949136;28;20565;-79
2023/04/18 05:15:43;;;;;;;152.30;24.92;;;19.90;80.80;;;;;;4940872;29;20493;-79
2023/04/18 05:18:08;;;;;;;189.15;26.33;;;19.90;80.80;;;;;;4947816;28;20303;-79
2023/04/18 05:20:34;;;;;;;160.20;25.10;;;19.90;80.80;;;;;;4943454;29;20027;-80
2023/04/18 05:23:00;;;;;;;129.40;22.25;;;19.90;80.70;;;;;;4946903;29;20082;-79
2023/04/18 05:25:25;;;;;;;124.75;22.27;;;19.90;80.60;;;;;;4951147;29;20031;-77
2023/04/18 05:27:51;;;;;;;72.82;13.18;;;19.90;80.60;;;;;;4950052;28;20026;-78
2023/04/18 05:30:17;;;;;;;110.20;12.23;;;19.90;80.80;;;;;;4948965;29;20027;-80
2023/04/18 05:32:42;;;;;;;82.57;12.30;;;20.00;81.50;;;;;;4949469;29;20098;-77
2023/04/18 05:35:08;;;;;;;71.40;12.60;;;20.10;81.80;;;;;;4949648;29;20163;-77
2023/04/18 05:37:34;;;;;;;87.22;13.35;;;20.10;82.90;;;;;;4949626;28;20027;-77
2023/04/18 05:40:00;;;;;;;72.65;12.50;;;20.20;81.50;;;;;;4950432;29;20058;-78
2023/04/18 05:42:25;;;;;;;63.42;12.00;;;20.30;83.20;;;;;;4948038;29;20502;-78
2023/04/18 05:44:51;;;;;;;67.75;11.98;;;20.30;81.70;;;;;;4942470;29;20035;-78
2023/04/18 05:47:16;;;;;;;68.47;12.05;;;20.30;81.00;;;;;;4939350;28;20033;-78
2023/04/18 05:49:42;;;;;;;78.32;12.82;;;20.30;80.80;;;;;;4938787;29;20027;-77
2023/04/18 05:52:08;;;;;;;76.90;12.52;;;20.40;81.50;;;;;;4940310;28;20023;-80
2023/04/18 05:54:34;;;;;;;69.97;11.35;;;20.50;80.80;;;;;;4941530;29;20413;-80
2023/04/18 05:56:59;;;;;;;69.82;11.55;;;20.50;80.60;;;;;;4940758;29;20126;-79
2023/04/18 05:59:28;;;;;;;66.93;10.93;;;20.60;80.70;;;;;;4939452;29;20086;-79
2023/04/18 06:01:53;;;;;;;51.40;9.57;;;20.60;80.80;;;;;;4950245;28;20026;-79
2023/04/18 06:04:20;;;;;;;61.65;9.93;;;20.80;81.60;;;;;;4948971;28;20564;-74
2023/04/18 06:06:45;;;;;;;55.90;11.07;;;20.80;81.20;;;;;;4950372;29;20441;-76
2023/04/18 06:09:11;;;;;;;67.85;11.48;;;20.90;80.90;;;;;;4945070;29;20023;-77
2023/04/18 06:11:36;;;;;;;62.67;10.38;;;20.90;80.60;;;;;;4948148;29;20041;-80
2023/04/18 06:14:02;;;;;;;55.92;9.98;;;21.00;80.60;;;;;;4951536;29;20031;-77
2023/04/18 06:16:28;;;;;;;58.70;10.18;;;21.00;80.10;;;;;;4950122;29;20521;-77
2023/04/18 06:18:54;;;;;;;63.78;10.07;;;21.10;80.00;;;;;;4948490;28;20028;-77
2023/04/18 06:21:20;;;;;;;56.90;10.98;;;21.10;79.60;;;;;;4948361;29;20067;-79
2023/04/18 06:23:46;;;;;;;44.25;9.95;;;21.10;79.50;;;;;;4947390;29;20505;-77
2023/04/18 06:26:12;;;;;;;48.88;8.98;;;21.10;79.30;;;;;;4943695;29;20118;-77
2023/04/18 06:28:38;;;;;;;44.63;8.90;;;21.20;79.20;;;;;;4948027;28;20023;-72
2023/04/18 06:31:03;;;;;;;50.20;8.20;;;21.10;78.20;;;;;;4945612;29;20046;-73
2023/04/18 06:33:29;;;;;;;48.63;8.52;;;21.10;77.70;;;;;;4950540;29;20023;-73
2023/04/18 06:35:55;;;;;;;44.92;9.15;;;21.10;77.10;;;;;;4946246;28;20039;-72
2023/04/18 06:38:21;;;;;;;35.30;7.20;;;21.00;77.00;;;;;;4946231;29;20441;-73
2023/04/18 06:40:47;;;;;;;39.33;7.93;;;21.00;77.20;;;;;;4947908;29;20066;-73
2023/04/18 06:43:12;;;;;;;29.45;6.82;;;21.00;77.50;;;;;;4946829;29;20055;-75
2023/04/18 06:45:38;;;;;;;30.13;8.60;;;21.00;77.30;;;;;;4948262;29;20411;-74
2023/04/18 06:48:04;;;;;;;23.35;6.95;;;21.00;77.20;;;;;;4952781;28;20023;-75
2023/04/18 06:50:30;;;;;;;34.35;7.45;;;21.00;77.40;;;;;;4951978;29;20066;-73
2023/04/18 06:52:55;;;;;;;29.92;6.50;;;21.00;77.30;;;;;;4953240;29;20058;-74
2023/04/18 06:55:21;;;;;;;40.88;7.43;;;21.00;77.20;;;;;;4952319;29;20031;-76
2023/04/18 06:57:47;;;;;;;45.78;7.57;;;20.90;77.10;;;;;;4950304;28;20035;-73
2023/04/18 07:00:13;;;;;;;47.38;7.57;;;21.00;77.80;;;;;;4951733;28;20515;-71
2023/04/18 07:02:39;;;;;;;37.05;9.30;;;21.00;77.40;;;;;;4943024;28;20062;-73
2023/04/18 07:05:05;;;;;;;56.30;9.80;;;20.90;78.00;;;;;;4940657;29;20490;-71
2023/04/18 07:07:31;;;;;;;31.88;7.60;;;20.90;78.20;;;;;;4946505;29;20030;-71
2023/04/18 07:09:57;;;;;;;41.40;8.40;;;20.90;78.10;;;;;;4943879;28;20027;-72
2023/04/18 07:12:23;;;;;;;35.67;7.07;;;20.90;78.00;;;;;;4946507;29;20023;-73
2023/04/18 07:14:50;;;;;;;29.55;6.55;;;20.90;78.10;;;;;;4947421;28;20023;-73
2023/04/18 07:17:16;;;;;;;35.60;7.38;;;20.90;78.20;;;;;;4949836;29;20039;-72
2023/04/18 07:19:42;;;;;;;27.08;6.55;;;20.80;78.30;;;;;;4947449;28;20030;-72
2023/04/18 07:22:08;;;;;;;37.28;7.95;;;20.80;78.20;;;;;;4948700;28;20501;-72
2023/04/18 07:24:33;;;;;;;34.05;6.70;;;20.80;78.30;;;;;;4944852;29;20079;-72
2023/04/18 07:27:00;;;;;;;33.17;7.20;;;20.80;78.90;;;;;;4947266;28;20520;-72
2023/04/18 07:29:25;;;;;;;27.80;7.82;;;20.80;78.60;;;;;;4948928;28;20019;-72
2023/04/18 07:31:51;;;;;;;28.00;6.88;;;20.80;78.50;;;;;;4952999;29;20023;-72
2023/04/18 07:34:16;;;;;;;33.33;7.55;;;20.80;78.70;;;;;;4943448;29;20031;-72
2023/04/18 07:36:42;;;;;;;27.58;7.82;;;20.80;78.60;;;;;;4949334;29;20041;-72
2023/04/18 07:39:07;;;;;;;31.88;7.63;;;20.80;78.60;;;;;;4947148;29;20023;-72
2023/04/18 07:41:34;;;;;;;37.38;7.57;;;20.80;78.50;;;;;;4950701;29;20485;-72
2023/04/18 07:44:02;;;;;;;29.05;7.22;;;20.90;79.10;;;;;;4945750;29;20114;-72
2023/04/18 07:46:28;;;;;;;35.08;7.38;;;20.90;78.70;;;;;;4948549;29;20032;-72
2023/04/18 07:48:53;;;;;;;49.28;7.63;;;20.90;79.30;;;;;;4946028;29;20082;-72
2023/04/18 07:51:20;;;;;;;50.10;7.85;;;20.90;78.60;;;;;;4950130;29;20041;-73
2023/04/18 07:53:46;;;;;;;34.42;6.45;;;20.90;78.60;;;;;;4956935;28;20023;-71
2023/04/18 07:56:13;;;;;;;56.42;8.93;;;20.90;78.80;;;;;;4951719;29;20038;-76
2023/04/18 07:58:38;;;;;;;26.10;6.00;;;21.00;78.60;;;;;;4949664;28;20019;-76
2023/04/18 08:01:05;;;;;;;20.40;5.80;;;20.90;78.30;;;;;;4951963;29;20551;-75
2023/04/18 08:03:33;;;;;;;25.63;6.35;;;20.90;78.10;;;;;;4952225;29;20035;-75
2023/04/18 08:06:01;;;;;;;26.80;6.07;;;20.90;78.20;;;;;;4945705;28;20028;-76
2023/04/18 08:08:26;;;;;;;24.30;5.93;;;20.80;78.10;;;;;;4945662;28;20042;-75
2023/04/18 08:10:52;;;;;;;23.33;6.13;;;20.80;78.20;;;;;;4947809;29;20473;-77
2023/04/18 08:13:17;;;;;;;47.00;7.20;;;20.80;78.20;;;;;;4944395;29;20058;-74
2023/04/18 08:15:43;;;;;;;31.05;6.00;;;20.80;78.20;;;;;;4946159;29;20090;-74
2023/04/18 08:18:08;;;;;;;26.55;5.32;;;20.80;78.10;;;;;;4960950;28;20576;-74
2023/04/18 08:20:35;;;;;;;25.17;5.72;;;20.80;78.00;;;;;;4947836;29;20493;-74
2023/04/18 08:23:01;;;;;;;21.08;6.85;;;20.80;78.00;;;;;;4944200;28;20059;-74
2023/04/18 08:25:27;;;;;;;24.25;5.70;;;20.80;78.10;;;;;;4945677;29;20032;-74
2023/04/18 08:27:53;;;;;;;17.00;4.88;;;20.80;78.10;;;;;;4940596;29;20488;-75
2023/04/18 08:30:18;;;;;;;19.42;5.25;;;20.80;78.20;;;;;;4944818;29;20025;-75
2023/04/18 08:32:44;;;;;;;25.25;6.03;;;20.80;78.10;;;;;;4939693;29;20032;-74
2023/04/18 08:35:09;;;;;;;28.10;5.72;;;20.80;78.30;;;;;;4944232;29;20079;-75
2023/04/18 08:37:35;;;;;;;22.95;5.32;;;20.70;78.30;;;;;;4943144;28;20054;-76
2023/04/18 08:40:02;;;;;;;29.63;5.30;;;20.70;78.40;;;;;;4942648;29;20031;-75
2023/04/18 08:42:28;;;;;;;23.58;6.20;;;20.70;78.40;;;;;;4946086;29;20032;-74
2023/04/18 08:44:54;;;;;;;18.33;4.97;;;20.70;78.70;;;;;;4950608;29;20446;-72
2023/04/18 08:47:20;;;;;;;22.45;5.53;;;20.80;78.50;;;;;;4950141;28;20030;-74
2023/04/18 08:49:45;;;;;;;20.58;4.68;;;20.80;78.70;;;;;;4942429;29;20043;-73
2023/04/18 08:52:18;;;;;;;17.33;5.30;;;20.90;78.70;;;;;;4940927;29;20024;-73
2023/04/18 08:54:45;;;;;;;23.60;5.22;;;20.90;78.50;;;;;;4943571;28;20038;-73
2023/04/18 08:57:15;;;;;;;25.10;5.38;;;20.90;78.40;;;;;;4949588;28;20035;-73
2023/04/18 08:59:44;;;;;;;16.25;5.15;;;20.90;78.10;;;;;;4944667;29;20035;-73
2023/04/18 09:02:10;;;;;;;25.10;5.43;;;21.00;79.00;;;;;;4946836;29;20130;-74
2023/04/18 09:04:37;;;;;;;24.30;5.20;;;21.10;78.20;;;;;;4943371;29;20031;-77
2023/04/18 09:07:05;;;;;;;26.10;5.75;;;21.10;78.10;;;;;;4951815;29;20027;-79
2023/04/18 09:09:41;;;;;;;27.00;5.28;;;21.10;77.90;;;;;;4950457;29;20461;-79
2023/04/18 09:12:07;;;;;;;27.83;5.18;;;21.10;77.70;;;;;;4953556;29;20038;-79
2023/04/18 09:14:41;;;;;;;21.60;5.28;;;21.10;77.70;;;;;;4957271;29;20657;-77
2023/04/18 09:17:08;;;;;;;14.48;5.18;;;21.10;77.30;;;;;;4949829;28;20027;-76
2023/04/18 09:19:33;;;;;;;14.75;5.03;;;21.10;77.10;;;;;;4949328;28;20034;-78
2023/04/18 09:22:01;;;;;;;20.05;5.20;;;21.00;77.40;;;;;;4951712;29;20210;-78
2023/04/18 09:24:27;;;;;;;16.23;5.10;;;21.10;77.40;;;;;;4944993;29;20051;-78
2023/04/18 09:26:55;;;;;;;20.15;5.00;;;21.10;77.30;;;;;;4950706;28;20501;-78
2023/04/18 09:29:45;;;;;;;15.32;4.35;;;21.10;77.30;;;;;;4945640;29;20493;-78
2023/04/18 09:32:19;;;;;;;13.88;4.20;;;21.10;77.30;;;;;;4938393;29;20043;-79
2023/04/18 09:34:45;;;;;;;24.65;4.85;;;21.20;77.40;;;;;;4937664;29;20031;-79
2023/04/18 09:37:12;;;;;;;11.18;4.50;;;21.20;77.30;;;;;;4949505;29;20038;-78
2023/04/18 09:39:43;;;;;;;11.63;4.47;;;21.20;77.30;;;;;;4941027;29;20114;-79
2023/04/18 09:42:09;;;;;;;14.18;4.28;;;21.20;77.30;;;;;;4948693;29;20027;-77
2023/04/18 09:44:35;;;;;;;42.97;5.55;;;21.20;77.30;;;;;;4942116;29;20097;-79
2023/04/18 09:47:01;;;;;;;26.50;5.97;;;21.20;77.30;;;;;;4945908;29;20460;-78
2023/04/18 09:49:27;;;;;;;62.83;6.63;;;21.20;77.90;;;;;;4947447;29;20047;-79
2023/04/18 09:51:54;;;;;;;27.45;5.13;;;21.30;77.10;;;;;;4954155;29;20083;-79
2023/04/18 09:54:22;;;;;;;40.10;5.95;;;21.20;76.80;;;;;;4943349;29;20027;-78
2023/04/18 09:56:50;;;;;;;19.88;6.00;;;21.20;76.70;;;;;;4948960;29;20015;-78
2023/04/18 09:59:41;;;;;;;33.00;4.93;;;21.20;76.60;;;;;;4942407;29;20118;-78
2023/04/18 10:02:19;;;;;;;20.35;3.88;;;21.20;76.50;;;;;;4942670;29;20068;-78
2023/04/18 10:04:46;;;;;;;26.63;4.80;;;21.20;76.40;;;;;;4946833;28;20031;-78
2023/04/18 10:07:13;;;;;;;19.60;4.60;;;21.20;76.40;;;;;;4951490;29;20026;-78
2023/04/18 10:09:43;;;;;;;29.25;4.80;;;21.20;76.40;;;;;;4954792;29;20024;-79
2023/04/18 10:12:11;;;;;;;22.52;4.80;;;21.20;76.40;;;;;;4951440;29;20400;-77
2023/04/18 10:14:41;;;;;;;19.45;4.13;;;21.20;76.40;;;;;;4948087;29;20027;-78
2023/04/18 10:17:08;;;;;;;14.25;4.07;;;21.20;76.40;;;;;;4944184;29;20034;-78
2023/04/18 10:19:33;;;;;;;18.85;4.93;;;21.20;76.30;;;;;;4952003;29;20073;-77
2023/04/18 10:22:00;;;;;;;17.95;4.90;;;21.20;76.40;;;;;;4951935;29;20031;-78
2023/04/18 10:24:44;;;;;;;20.98;4.50;;;21.20;76.30;;;;;;4946921;28;20024;-77
2023/04/18 10:27:10;;;;;;;25.55;5.13;;;21.20;76.30;;;;;;4950964;28;20051;-79
2023/04/18 10:30:05;;;;;;;19.60;5.05;;;21.20;76.30;;;;;;4952352;29;20035;-79
2023/04/18 10:32:32;;;;;;;15.15;4.57;;;21.20;76.40;;;;;;4935929;29;20345;-80
2023/04/18 10:34:59;;;;;;;11.88;4.50;;;21.20;76.30;;;;;;4954678;29;20042;-75
2023/04/18 10:37:25;;;;;;;21.20;4.25;;;21.20;76.30;;;;;;4951361;28;20039;-77
2023/04/18 10:40:05;;;;;;;15.13;4.45;;;21.20;76.10;;;;;;4960609;29;20027;-78
2023/04/18 10:42:45;;;;;;;11.27;3.47;;;21.20;76.20;;;;;;4954425;29;20038;-77
2023/04/18 10:45:25;;;;;;;12.50;4.47;;;21.20;76.10;;;;;;4956787;29;20568;-77
2023/04/18 10:48:20;;;;;;;13.88;4.15;;;21.20;76.10;;;;;;4955489;28;20481;-78
2023/04/18 10:51:18;;;;;;;13.85;4.13;;;21.20;75.90;;;;;;4959304;29;20166;-78
2023/04/18 10:53:56;;;;;;;6.47;3.85;;;21.20;75.90;;;;;;4908078;29;20027;-78
2023/04/18 10:56:22;;;;;;;8.75;3.92;;;21.20;76.00;;;;;;4915375;29;20043;-79
2023/04/18 10:58:52;;;;;;;19.58;3.90;;;21.20;75.90;;;;;;4916101;29;20028;-80
2023/04/18 11:01:28;;;;;;;6.47;3.88;;;21.20;75.90;;;;;;4936059;29;20147;-79
2023/04/18 11:03:54;;;;;;;12.77;3.92;;;21.20;76.00;;;;;;4918104;29;20036;-80
2023/04/18 11:06:21;;;;;;;10.15;4.25;;;21.20;75.90;;;;;;4930987;29;20031;-80
2023/04/18 11:08:50;;;;;;;12.10;3.55;;;21.20;75.90;;;;;;4915378;29;20116;-79
2023/04/18 11:11:16;;;;;;;17.30;4.30;;;21.20;75.90;;;;;;4931684;29;20020;-80
2023/04/18 11:13:56;;;;;;;9.38;4.22;;;21.20;75.90;;;;;;4918368;29;20032;-78
2023/04/18 11:16:28;;;;;;;12.98;3.97;;;21.20;75.90;;;;;;4930335;29;20175;-77
2023/04/18 11:18:54;;;;;;;15.20;4.50;;;21.20;75.90;;;;;;4929964;29;20048;-79
2023/04/18 11:21:21;;;;;;;8.88;3.50;;;21.20;75.90;;;;;;4930447;29;20115;-78
2023/04/18 11:23:46;;;;;;;12.05;4.00;;;21.20;76.00;;;;;;4923040;29;21267;-78
2023/04/18 11:26:16;;;;;;;11.68;4.18;;;21.20;75.90;;;;;;4928983;29;20107;-77
2023/04/18 11:28:42;;;;;;;10.57;3.83;;;21.20;75.90;;;;;;4930859;29;20087;-77
2023/04/18 11:31:07;;;;;;;10.77;4.18;;;21.20;76.80;;;;;;4957600;29;20318;-78
2023/04/18 11:33:33;;;;;;;6.20;3.78;;;21.20;76.10;;;;;;4955967;29;20402;-78
2023/04/18 11:35:59;;;;;;;15.80;4.47;;;21.20;76.10;;;;;;4959032;29;20038;-78
2023/04/18 11:38:29;;;;;;;9.45;3.88;;;21.20;76.10;;;;;;4956323;28;20040;-78
2023/04/18 11:40:55;;;;;;;10.30;4.15;;;21.20;76.10;;;;;;4953646;29;20517;-78
2023/04/18 11:43:22;;;;;;;11.02;4.70;;;21.20;76.10;;;;;;4957718;29;20027;-77
2023/04/18 11:45:55;;;;;;;6.65;3.80;;;21.20;76.20;;;;;;4958719;29;20114;-78
2023/04/18 11:48:21;;;;;;;10.88;4.40;;;21.20;76.20;;;;;;4950126;28;20031;-78
2023/04/18 11:50:47;;;;;;;13.68;4.47;;;21.20;76.20;;;;;;4953870;29;20034;-75
2023/04/18 11:53:13;;;;;;;11.88;4.38;;;21.20;76.30;;;;;;4956749;29;20023;-77
2023/04/18 11:55:38;;;;;;;7.18;4.45;;;21.20;76.30;;;;;;4953938;29;20392;-77
2023/04/18 11:58:05;;;;;;;11.10;4.45;;;21.20;76.40;;;;;;4956716;28;20043;-76
2023/04/18 12:00:36;;;;;;;7.90;4.80;;;21.10;76.40;;;;;;4952324;29;20022;-75
2023/04/18 12:03:03;;;;;;;9.10;5.40;;;21.10;76.50;;;;;;4949979;29;20059;-76
2023/04/18 12:05:34;;;;;;;9.43;4.30;;;21.20;76.60;;;;;;4948490;29;20128;-75
2023/04/18 12:08:06;;;;;;;8.88;4.57;;;21.10;76.50;;;;;;4981144;28;20035;-77
2023/04/18 12:10:32;;;;;;;14.10;5.22;;;21.10;76.60;;;;;;4957249;29;20506;-77
2023/04/18 12:12:58;;;;;;;8.27;4.60;;;21.10;76.50;;;;;;4952050;28;20031;-77
2023/04/18 12:15:27;;;;;;;11.63;4.28;;;21.10;76.50;;;;;;4954368;28;20054;-77
2023/04/18 12:18:02;;;;;;;10.23;5.22;;;21.20;76.60;;;;;;4951433;29;20034;-76
2023/04/18 12:20:46;;;;;;;15.13;5.53;;;21.20;76.70;;;;;;4954095;29;20098;-77
2023/04/18 12:23:32;;;;;;;9.95;4.53;;;21.10;76.60;;;;;;4954434;29;20031;-76
2023/04/18 12:26:02;;;;;;;10.52;5.20;;;21.20;76.60;;;;;;4949831;29;20024;-76
2023/04/18 12:28:29;;;;;;;10.20;5.07;;;21.20;76.60;;;;;;4954211;28;20027;-75
2023/04/18 12:30:55;;;;;;;9.82;5.10;;;21.20;76.60;;;;;;4956781;29;20030;-75
2023/04/18 12:33:21;;;;;;;12.82;5.07;;;21.20;76.60;;;;;;4964611;28;20020;-76
2023/04/18 12:35:47;;;;;;;12.30;5.35;;;21.20;76.60;;;;;;4948785;29;20023;-75
2023/04/18 12:38:12;;;;;;;9.88;5.22;;;21.20;76.60;;;;;;4979002;28;20035;-76